Time;durP1;ratioP1;P1;durP2;ratioP2;P2;SDS_P1;SDS_P2;PMS_P1;PMS_P2;Temp;Humidity;BMP_temperature;BMP_pressure;BME280_temperature;BME280_humidity;BME280_pressure;Samples;Min_cycle;Max_cycle;Signal;HPM_P1;HPM_P2
2023/09/18 00:01:51;;;;;;;5.20;4.43;;;;;;;22.21;74.12;157076.47;5007232;28;20782;-80
2023/09/18 00:04:18;;;;;;;4.27;3.87;;;;;;;22.15;74.77;157060.78;4988509;28;20459;-80
2023/09/18 00:06:46;;;;;;;5.13;4.17;;;;;;;22.11;75.19;157050.31;4989097;28;20983;-80
2023/09/18 00:09:13;;;;;;;5.10;3.70;;;;;;;22.04;75.45;157033.38;4989060;28;20567;-79
2023/09/18 00:11:40;;;;;;;4.13;3.60;;;;;;;21.98;75.83;157017.69;4989567;28;20468;-80
2023/09/18 00:14:07;;;;;;;4.10;3.20;;;;;;;21.95;75.48;157008.56;4989029;28;20448;-80
2023/09/18 00:16:33;;;;;;;4.43;4.03;;;;;;;21.96;75.65;157011.16;4990232;28;20871;-80
2023/09/18 00:19:00;;;;;;;4.87;3.80;;;;;;;21.93;75.73;157004.63;4988007;28;20516;-80
2023/09/18 00:21:30;;;;;;;4.60;3.90;;;;;;;21.90;75.75;156996.78;5009713;28;20452;-80
2023/09/18 00:23:58;;;;;;;4.17;3.70;;;;;;;21.90;76.04;156995.47;4988716;28;20457;-80
2023/09/18 00:26:26;;;;;;;5.37;3.70;;;;;;;21.85;76.21;156985.00;4987689;28;20498;-80
2023/09/18 00:28:53;;;;;;;4.27;3.50;;;;;;;21.82;76.61;156977.16;4989899;28;20456;-80
2023/09/18 00:31:20;;;;;;;4.00;3.60;;;;;;;21.80;76.43;156971.94;4989960;28;20476;-80
2023/09/18 00:33:48;;;;;;;3.87;3.57;;;;;;;21.78;76.64;156966.75;4988459;28;20488;-80
2023/09/18 00:36:14;;;;;;;4.33;3.93;;;;;;;21.79;76.32;156969.31;4990685;28;20463;-80
2023/09/18 00:38:41;;;;;;;4.20;3.70;;;;;;;21.75;76.10;156958.91;4992252;28;20488;-80
2023/09/18 00:41:09;;;;;;;4.00;3.37;;;;;;;21.72;76.91;156951.06;4995998;28;20455;-80
2023/09/18 00:43:35;;;;;;;3.83;3.40;;;;;;;21.73;76.93;156953.69;4987355;28;20460;-80
2023/09/18 00:46:02;;;;;;;4.13;3.73;;;;;;;21.71;76.31;156947.16;4988903;28;20522;-80
2023/09/18 00:48:29;;;;;;;4.27;3.27;;;;;;;21.74;76.69;156954.94;4970728;28;20453;-80
2023/09/18 00:50:57;;;;;;;4.20;3.80;;;;;;;21.74;76.65;156956.25;4974042;28;20971;-80
2023/09/18 00:53:24;;;;;;;3.93;3.57;;;;;;;21.73;76.69;156952.38;4988644;28;20547;-80
2023/09/18 00:55:51;;;;;;;3.50;3.20;;;;;;;21.75;76.59;156957.59;4970256;28;20485;-80
2023/09/18 00:58:19;;;;;;;4.30;3.60;;;;;;;21.75;76.32;156958.91;5007722;28;20473;-80
2023/09/18 01:00:46;;;;;;;4.67;3.80;;;;;;;21.78;75.87;156966.75;4990476;28;20575;-80
2023/09/18 01:03:13;;;;;;;3.90;3.50;;;;;;;21.80;75.96;156971.94;4978876;28;20461;-80
2023/09/18 01:05:39;;;;;;;4.03;3.63;;;;;;;21.83;76.25;156979.78;5001638;28;20543;-80
2023/09/18 01:08:06;;;;;;;3.90;3.50;;;;;;;21.87;76.10;156987.69;4990493;28;20752;-80
2023/09/18 01:10:35;;;;;;;4.83;4.00;;;;;;;21.90;75.80;156995.47;4989593;28;20484;-80
2023/09/18 01:13:06;;;;;;;4.73;3.83;;;;;;;21.90;75.47;156995.47;4988296;28;20874;-80
2023/09/18 01:15:37;;;;;;;3.60;3.30;;;;;;;21.91;75.28;156999.41;4983747;28;20994;-80
2023/09/18 01:18:04;;;;;;;5.30;3.80;;;;;;;21.94;75.23;157005.94;4989074;28;20567;-80
2023/09/18 01:20:31;;;;;;;3.30;3.00;;;;;;;21.94;75.04;157005.94;4987689;28;20471;-80
2023/09/18 01:22:59;;;;;;;3.93;3.50;;;;;;;21.95;75.01;157008.56;5006024;28;21143;-80
2023/09/18 01:25:25;;;;;;;4.17;3.77;;;;;;;21.96;74.83;157012.47;4988837;28;20495;-80
2023/09/18 01:27:52;;;;;;;4.03;3.20;;;;;;;21.95;75.14;157008.56;4989359;28;20453;-80
2023/09/18 01:30:19;;;;;;;3.67;3.27;;;;;;;21.94;75.11;157005.94;4986264;28;20467;-80
2023/09/18 01:32:46;;;;;;;3.80;3.47;;;;;;;21.91;75.12;156999.41;5005537;28;20855;-80
2023/09/18 01:35:13;;;;;;;4.10;3.70;;;;;;;21.89;75.57;156994.19;4994875;28;20444;-80
2023/09/18 01:37:40;;;;;;;5.53;3.80;;;;;;;21.88;75.88;156991.56;4974460;28;20491;-80
2023/09/18 01:40:11;;;;;;;3.57;3.00;;;;;;;21.90;75.85;156995.47;4992421;28;20839;-80
2023/09/18 01:42:37;;;;;;;3.60;3.10;;;;;;;21.91;75.70;156998.09;4995445;28;20468;-80
2023/09/18 01:45:05;;;;;;;4.67;3.20;;;;;;;21.91;75.76;156999.41;5011738;28;20445;-80
2023/09/18 01:47:31;;;;;;;4.20;3.50;;;;;;;21.92;75.59;157000.72;4990540;28;20448;-80
2023/09/18 01:49:58;;;;;;;3.80;3.30;;;;;;;21.94;75.65;157005.94;4990418;28;20448;-80
2023/09/18 01:52:25;;;;;;;4.10;3.70;;;;;;;21.99;74.78;157019.00;5009285;28;20453;-80
2023/09/18 01:54:52;;;;;;;4.33;3.30;;;;;;;22.03;74.68;157029.47;4966632;28;20458;-79
2023/09/18 01:57:20;;;;;;;4.70;3.30;;;;;;;22.08;72.67;157043.78;4969315;28;20500;-79
2023/09/18 01:59:46;;;;;;;5.33;3.20;;;;;;;22.13;72.95;157055.56;4994016;28;20475;-81
2023/09/18 02:02:13;;;;;;;3.97;3.17;;;;;;;22.15;72.81;157060.78;4994164;28;20456;-81
2023/09/18 02:04:39;;;;;;;3.20;2.70;;;;;;;22.15;72.75;157062.09;4993266;28;20804;-81
2023/09/18 02:07:06;;;;;;;4.60;3.30;;;;;;;22.12;72.89;157054.25;5003226;28;20458;-82
2023/09/18 02:09:33;;;;;;;4.27;3.23;;;;;;;22.13;72.52;157055.56;5009120;28;20440;-81
2023/09/18 02:11:59;;;;;;;4.67;2.90;;;;;;;22.20;76.28;157073.84;5004628;28;20452;-83
2023/09/18 02:14:31;;;;;;;6.73;3.40;;;;;;;22.17;82.25;157066.00;4970325;28;20469;-82
2023/09/18 02:16:57;;;;;;;7.17;3.30;;;;;;;22.04;85.87;157032.03;5009099;28;20915;-83
2023/09/18 02:19:24;;;;;;;5.90;3.00;;;;;;;21.91;86.18;156998.09;4990473;28;20463;-83
2023/09/18 02:21:50;;;;;;;6.60;3.17;;;;;;;21.81;88.59;156974.56;4992457;28;20856;-83
2023/09/18 02:24:17;;;;;;;7.17;3.17;;;;;;;21.75;90.25;156957.59;4987859;28;20460;-84
2023/09/18 02:26:45;;;;;;;4.80;3.37;;;;;;;21.67;92.05;156938.00;5009052;28;20474;-83
2023/09/18 02:29:13;;;;;;;4.70;3.00;;;;;;;21.64;92.69;156930.16;4973306;28;20898;-83
2023/09/18 02:31:41;;;;;;;7.70;2.77;;;;;;;21.60;93.18;156919.75;5008041;28;20551;-83
2023/09/18 02:34:08;;;;;;;7.00;2.80;;;;;;;21.56;93.44;156909.28;4986618;28;20453;-83
2023/09/18 02:36:35;;;;;;;3.77;2.83;;;;;;;21.52;93.22;156897.53;4981308;28;20522;-83
2023/09/18 02:39:02;;;;;;;9.20;2.53;;;;;;;21.46;91.78;156881.88;4985943;28;20480;-83
2023/09/18 02:41:29;;;;;;;6.70;2.57;;;;;;;21.45;91.61;156880.53;4999637;28;20556;-83
2023/09/18 02:43:55;;;;;;;4.30;2.30;;;;;;;21.46;90.15;156881.88;4979088;28;20457;-83
2023/09/18 02:46:22;;;;;;;7.40;2.20;;;;;;;21.51;86.16;156896.22;4997471;28;20456;-82
2023/09/18 02:48:50;;;;;;;6.90;1.93;;;;;;;21.62;83.01;156923.63;4977448;28;20518;-82
2023/09/18 02:51:16;;;;;;;6.07;2.10;;;;;;;21.67;81.69;156938.00;5007586;28;20459;-82
2023/09/18 02:53:43;;;;;;;8.20;2.20;;;;;;;21.73;80.75;156953.69;5009817;28;20452;-82
2023/09/18 02:56:10;;;;;;;10.60;2.60;;;;;;;21.72;80.88;156951.06;4970832;28;20519;-82
2023/09/18 02:58:38;;;;;;;7.83;3.00;;;;;;;21.65;80.74;156932.78;4984694;28;20482;-82
2023/09/18 03:01:05;;;;;;;4.83;2.80;;;;;;;21.56;83.46;156907.97;4989951;28;20546;-81
2023/09/18 03:03:32;;;;;;;4.43;2.27;;;;;;;21.46;84.61;156883.19;5020004;28;20452;-82
2023/09/18 03:06:06;;;;;;;7.20;2.40;;;;;;;21.34;85.27;156851.81;4976720;28;20452;-82
2023/09/18 03:08:33;;;;;;;7.40;3.13;;;;;;;21.29;85.24;156837.50;4990462;28;20449;-81
2023/09/18 03:11:00;;;;;;;8.20;2.60;;;;;;;21.24;85.35;156825.72;4975850;28;20464;-82
2023/09/18 03:13:28;;;;;;;8.10;2.40;;;;;;;21.21;84.96;156817.91;4993199;28;20452;-81
2023/09/18 03:15:54;;;;;;;8.13;2.80;;;;;;;21.19;84.48;156814.00;4973615;28;20453;-82
2023/09/18 03:18:21;;;;;;;11.17;2.80;;;;;;;21.15;84.52;156803.53;4971885;28;21997;-82
2023/09/18 03:20:48;;;;;;;6.40;2.67;;;;;;;21.16;85.18;156804.84;4971637;28;20477;-81
2023/09/18 03:23:16;;;;;;;6.93;3.03;;;;;;;21.10;85.08;156790.50;4997376;28;20543;-81
2023/09/18 03:25:43;;;;;;;7.07;3.13;;;;;;;21.05;84.89;156777.38;5009112;28;20564;-81
2023/09/18 03:28:09;;;;;;;10.40;2.50;;;;;;;21.02;82.90;156769.56;5003997;28;20459;-81
2023/09/18 03:30:36;;;;;;;7.90;3.60;;;;;;;21.27;80.02;156832.25;5007650;28;20462;-79
2023/09/18 03:33:04;;;;;;;7.60;2.80;;;;;;;21.28;82.73;156834.88;5007298;28;20487;-79
2023/09/18 03:35:32;;;;;;;7.20;3.10;;;;;;;21.13;84.44;156797.00;4991271;28;20445;-79
2023/09/18 03:37:59;;;;;;;4.30;2.87;;;;;;;21.02;85.06;156768.28;5008000;28;20524;-79
2023/09/18 03:40:27;;;;;;;7.37;2.83;;;;;;;20.94;86.81;156747.41;5002374;28;20548;-79
2023/09/18 03:42:53;;;;;;;12.50;3.27;;;;;;;20.88;87.58;156731.75;4977092;28;20458;-78
2023/09/18 03:45:20;;;;;;;9.83;3.40;;;;;;;20.79;88.31;156708.22;4987672;28;20450;-80
2023/09/18 03:47:49;;;;;;;6.37;3.27;;;;;;;20.74;89.58;156696.50;4990586;28;20456;-80
2023/09/18 03:50:16;;;;;;;5.83;2.67;;;;;;;20.68;89.63;156679.56;4972279;28;20989;-80
2023/09/18 03:52:43;;;;;;;4.53;2.00;;;;;;;20.72;88.96;156689.97;4974457;28;20490;-80
2023/09/18 03:55:10;;;;;;;5.50;3.00;;;;;;;20.74;88.56;156696.50;4987059;28;20554;-80
2023/09/18 03:57:39;;;;;;;3.90;2.00;;;;;;;20.76;88.50;156700.44;4987279;28;20637;-80
2023/09/18 04:00:08;;;;;;;7.73;2.60;;;;;;;20.74;88.63;156695.19;4986893;28;20575;-80
2023/09/18 04:02:41;;;;;;;5.20;2.57;;;;;;;20.72;88.39;156689.97;5010334;28;20547;-80
2023/09/18 04:05:08;;;;;;;4.93;2.37;;;;;;;20.71;89.04;156687.34;4981368;28;20480;-79
2023/09/18 04:07:34;;;;;;;4.80;2.50;;;;;;;20.71;89.58;156687.34;4972587;28;20891;-80
2023/09/18 04:10:02;;;;;;;9.17;2.33;;;;;;;20.69;89.17;156683.47;4987941;28;20452;-80
2023/09/18 04:12:29;;;;;;;3.40;2.57;;;;;;;20.65;89.26;156674.31;4989072;28;20451;-80
2023/09/18 04:14:56;;;;;;;5.57;2.37;;;;;;;20.68;89.81;156679.56;4980113;28;20500;-80
2023/09/18 04:17:23;;;;;;;3.30;2.10;;;;;;;20.63;88.99;156669.09;4988349;28;20815;-80
2023/09/18 04:19:49;;;;;;;7.73;2.50;;;;;;;20.61;88.34;156662.59;4990401;28;20472;-79
2023/09/18 04:22:15;;;;;;;4.53;2.53;;;;;;;20.61;88.81;156662.59;4971969;28;21058;-79
2023/09/18 04:24:42;;;;;;;7.17;2.83;;;;;;;20.60;88.83;156661.28;4990376;28;20533;-80
2023/09/18 04:27:10;;;;;;;5.40;2.97;;;;;;;20.60;88.53;156661.28;4988672;28;20468;-79
2023/09/18 04:29:37;;;;;;;5.10;2.50;;;;;;;20.59;88.72;156657.38;4973454;28;20861;-80
2023/09/18 04:32:07;;;;;;;9.13;2.60;;;;;;;20.58;88.83;156656.06;4972142;28;20471;-80
2023/09/18 04:34:34;;;;;;;5.97;2.67;;;;;;;20.57;88.14;156653.44;4977117;28;20441;-80
2023/09/18 04:37:03;;;;;;;5.93;2.73;;;;;;;20.65;87.54;156674.31;4972161;28;20464;-79
2023/09/18 04:39:33;;;;;;;6.10;2.47;;;;;;;20.76;86.02;156700.44;4977054;28;20472;-80
2023/09/18 04:42:03;;;;;;;6.53;2.30;;;;;;;20.78;86.25;156705.66;5002139;28;20453;-80
2023/09/18 04:44:30;;;;;;;5.50;2.57;;;;;;;20.65;86.83;156674.31;4973933;28;20504;-79
2023/09/18 04:46:57;;;;;;;5.97;2.83;;;;;;;20.60;88.43;156661.28;4975313;28;20457;-79
2023/09/18 04:49:26;;;;;;;8.90;2.53;;;;;;;20.56;89.65;156649.53;4988452;28;20464;-79
2023/09/18 04:51:52;;;;;;;5.77;2.67;;;;;;;20.51;89.84;156636.50;4989483;28;20861;-80
2023/09/18 04:54:19;;;;;;;5.37;2.53;;;;;;;20.45;89.60;156622.16;4988736;28;20955;-80
2023/09/18 04:56:46;;;;;;;5.60;2.63;;;;;;;20.45;89.87;156622.16;4989568;28;20484;-80
2023/09/18 04:59:12;;;;;;;4.80;2.60;;;;;;;20.45;89.75;156620.84;4989165;28;20801;-80
2023/09/18 05:01:39;;;;;;;4.50;2.50;;;;;;;20.42;90.58;156613.00;5007071;28;20514;-80
2023/09/18 05:04:06;;;;;;;6.10;2.67;;;;;;;20.39;91.09;156606.47;4988221;28;20567;-79
2023/09/18 05:06:34;;;;;;;9.13;3.13;;;;;;;20.36;90.56;156598.66;4984020;28;20453;-79
2023/09/18 05:09:00;;;;;;;6.40;2.50;;;;;;;20.37;90.87;156601.28;4999534;28;20451;-80
2023/09/18 05:11:27;;;;;;;7.80;3.10;;;;;;;20.36;90.56;156598.66;4986234;28;20464;-79
2023/09/18 05:13:53;;;;;;;8.73;2.87;;;;;;;20.28;91.26;156577.78;4991716;28;20460;-79
2023/09/18 05:16:20;;;;;;;6.57;2.77;;;;;;;20.24;91.80;156567.38;4989159;28;20448;-79
2023/09/18 05:18:46;;;;;;;6.57;2.67;;;;;;;20.07;92.71;156522.94;4993226;28;20483;-80
2023/09/18 05:21:13;;;;;;;7.17;3.20;;;;;;;19.95;94.22;156491.69;4992515;28;20857;-80
2023/09/18 05:23:41;;;;;;;4.80;3.50;;;;;;;19.89;94.19;156476.03;5008415;28;20538;-79
2023/09/18 05:26:08;;;;;;;7.97;3.33;;;;;;;19.88;94.88;156473.44;5007464;28;20452;-79
2023/09/18 05:28:34;;;;;;;5.30;3.23;;;;;;;19.88;94.88;156474.69;4991219;28;21417;-79
2023/09/18 05:31:01;;;;;;;8.30;2.97;;;;;;;19.90;95.46;156479.97;4990712;28;20460;-79
2023/09/18 05:33:28;;;;;;;4.27;2.80;;;;;;;19.87;95.80;156470.81;4989663;28;20450;-79
2023/09/18 05:35:55;;;;;;;4.87;3.07;;;;;;;19.85;95.39;156466.94;4988454;28;20460;-79
2023/09/18 05:38:21;;;;;;;5.70;3.70;;;;;;;19.84;95.67;156464.31;5006840;28;20472;-80
2023/09/18 05:40:49;;;;;;;6.57;3.73;;;;;;;19.87;96.08;156470.81;5006810;28;20464;-80
2023/09/18 05:43:16;;;;;;;4.87;3.00;;;;;;;19.86;96.36;156468.19;4990357;28;20542;-79
2023/09/18 05:45:42;;;;;;;4.50;3.30;;;;;;;19.86;96.82;156468.19;4972768;28;21043;-79
2023/09/18 05:48:09;;;;;;;6.53;3.13;;;;;;;19.86;97.29;156468.19;4989575;28;20931;-79
2023/09/18 05:50:36;;;;;;;6.43;3.40;;;;;;;19.82;97.66;156459.09;4989818;28;20448;-80
2023/09/18 05:53:04;;;;;;;4.03;3.17;;;;;;;19.82;97.76;156459.09;5007056;28;20460;-79
2023/09/18 05:55:31;;;;;;;9.57;3.47;;;;;;;19.81;97.74;156455.16;4988149;28;20895;-79
2023/09/18 05:57:59;;;;;;;6.90;2.83;;;;;;;19.80;97.76;156453.84;4988104;28;20519;-79
2023/09/18 06:00:26;;;;;;;8.43;3.87;;;;;;;19.82;97.50;156457.78;4983553;28;20479;-79
2023/09/18 06:02:53;;;;;;;10.50;4.40;;;;;;;19.84;97.16;156464.31;4987222;28;20460;-80
2023/09/18 06:05:21;;;;;;;8.37;3.57;;;;;;;19.86;96.83;156468.19;4987395;28;20465;-79
2023/09/18 06:07:48;;;;;;;5.50;2.97;;;;;;;19.90;96.95;156479.97;4985087;28;20480;-80
2023/09/18 06:10:14;;;;;;;5.87;2.70;;;;;;;19.94;96.48;156490.38;4986856;28;20493;-79
2023/09/18 06:12:41;;;;;;;10.30;2.60;;;;;;;19.97;96.46;156498.19;4985456;28;20567;-80
2023/09/18 06:15:11;;;;;;;5.97;2.77;;;;;;;20.02;95.50;156509.91;4987201;28;20457;-80
2023/09/18 06:17:39;;;;;;;4.27;3.03;;;;;;;20.05;95.89;156519.06;4982740;28;20572;-80
2023/09/18 06:20:09;;;;;;;5.33;2.67;;;;;;;20.07;94.94;156522.94;4986145;28;20844;-79
2023/09/18 06:22:37;;;;;;;5.00;2.33;;;;;;;20.08;94.73;156525.59;4985867;28;20460;-80
2023/09/18 06:25:04;;;;;;;3.60;2.67;;;;;;;20.12;94.83;156534.72;4987138;28;20461;-80
2023/09/18 06:27:32;;;;;;;5.80;2.60;;;;;;;20.10;94.76;156530.78;4968634;28;20468;-80
2023/09/18 06:29:59;;;;;;;4.63;2.80;;;;;;;20.11;95.05;156533.41;4984062;28;20445;-80
2023/09/18 06:32:26;;;;;;;5.17;2.83;;;;;;;20.13;95.16;156537.31;4993919;28;20457;-80
2023/09/18 06:34:53;;;;;;;7.03;2.77;;;;;;;20.11;95.82;156533.41;4968816;28;20493;-80
2023/09/18 06:37:20;;;;;;;4.67;2.70;;;;;;;20.07;96.38;156522.94;4987348;28;20739;-80
2023/09/18 06:39:47;;;;;;;3.63;2.60;;;;;;;20.10;96.62;156530.78;4981956;28;20505;-80
2023/09/18 06:42:13;;;;;;;5.07;2.47;;;;;;;20.08;96.41;156525.59;4985209;28;20465;-80
2023/09/18 06:44:40;;;;;;;4.63;2.77;;;;;;;20.08;97.72;156525.59;5000175;28;20975;-80
2023/09/18 06:47:07;;;;;;;7.77;3.50;;;;;;;20.10;98.02;156529.47;4983683;28;20530;-80
2023/09/18 06:49:35;;;;;;;7.03;2.77;;;;;;;20.13;98.80;156538.63;4983522;28;20987;-80
2023/09/18 06:52:02;;;;;;;6.30;2.83;;;;;;;20.10;99.51;156530.78;4984821;28;20793;-80
2023/09/18 06:54:28;;;;;;;5.63;2.63;;;;;;;20.10;99.74;156530.78;4967225;28;20442;-80
2023/09/18 06:56:55;;;;;;;4.33;2.87;;;;;;;20.07;100.00;156522.94;4983840;28;20512;-82
2023/09/18 06:59:22;;;;;;;9.70;2.90;;;;;;;20.05;100.00;156517.75;4986324;28;20552;-80
2023/09/18 07:01:48;;;;;;;5.63;2.70;;;;;;;20.07;100.00;156522.94;4982931;28;20457;-80
2023/09/18 07:04:15;;;;;;;4.10;2.77;;;;;;;20.07;100.00;156522.94;4988633;28;20472;-80
2023/09/18 07:06:59;;;;;;;14.13;4.67;;;;;;;20.07;100.00;156521.69;4986106;28;20461;-81
2023/09/18 07:09:26;;;;;;;7.37;2.90;;;;;;;20.07;100.00;156522.94;5001576;28;20481;-80
2023/09/18 07:11:52;;;;;;;6.60;2.30;;;;;;;20.10;100.00;156529.47;4986505;28;20473;-80
2023/09/18 07:14:19;;;;;;;6.00;2.73;;;;;;;20.08;100.00;156525.59;4988482;28;20453;-80
2023/09/18 07:16:45;;;;;;;4.33;2.43;;;;;;;20.13;100.00;156538.63;4984788;28;20461;-80
2023/09/18 07:19:16;;;;;;;6.00;2.43;;;;;;;20.17;100.00;156547.75;4985773;28;20478;-81
2023/09/18 07:21:43;;;;;;;6.37;2.73;;;;;;;20.18;100.00;156551.66;4984275;28;20480;-80
2023/09/18 07:24:16;;;;;;;3.70;2.00;;;;;;;20.23;100.00;156563.38;4983881;28;20455;-81
2023/09/18 07:26:45;;;;;;;9.20;2.23;;;;;;;20.27;100.00;156575.19;4984927;28;20528;-80
2023/09/18 07:29:11;;;;;;;3.80;2.30;;;;;;;20.27;100.00;156575.19;4983671;28;20454;-81
2023/09/18 07:31:38;;;;;;;4.80;1.87;;;;;;;20.29;100.00;156580.41;4986489;28;20928;-81
2023/09/18 07:34:05;;;;;;;5.03;2.37;;;;;;;20.27;100.00;156575.19;4968816;28;20477;-81
2023/09/18 07:36:31;;;;;;;3.50;1.50;;;;;;;20.28;100.00;156576.50;4966178;28;20520;-80
2023/09/18 07:38:58;;;;;;;3.03;1.40;;;;;;;20.30;100.00;156583.03;4983823;28;20500;-80
2023/09/18 07:41:26;;;;;;;4.10;1.57;;;;;;;20.27;99.07;156575.19;4984025;28;20472;-80
2023/09/18 07:43:53;;;;;;;4.23;1.70;;;;;;;20.30;98.23;156583.03;4982805;28;20472;-80
2023/09/18 07:46:19;;;;;;;3.50;1.77;;;;;;;20.33;98.45;156590.81;4984107;28;20913;-80
2023/09/18 07:48:46;;;;;;;3.43;1.50;;;;;;;20.31;98.37;156584.31;4984737;28;20465;-80
2023/09/18 07:51:13;;;;;;;5.20;1.53;;;;;;;20.32;98.78;156586.94;4985330;28;20623;-80
2023/09/18 07:53:40;;;;;;;1.70;1.20;;;;;;;20.34;98.48;156593.44;4985314;28;20532;-80
2023/09/18 07:56:07;;;;;;;5.20;1.70;;;;;;;20.41;97.42;156611.69;4981877;28;20480;-80
2023/09/18 07:58:38;;;;;;;4.87;1.40;;;;;;;20.46;96.87;156623.47;4984502;28;20552;-80
2023/09/18 08:01:05;;;;;;;3.20;1.20;;;;;;;20.54;96.15;156644.34;4981653;28;20465;-80
2023/09/18 08:03:32;;;;;;;3.23;1.40;;;;;;;20.60;96.29;156659.94;4983695;28;21079;-79
2023/09/18 08:05:59;;;;;;;4.37;2.10;;;;;;;20.65;95.33;156674.31;4982943;28;20528;-80
2023/09/18 08:08:26;;;;;;;4.03;0.97;;;;;;;20.70;95.02;156686.09;4999394;28;20499;-79
2023/09/18 08:10:53;;;;;;;4.50;1.30;;;;;;;20.74;94.80;156695.19;4985968;28;20453;-79
2023/09/18 08:13:20;;;;;;;2.83;1.07;;;;;;;20.75;93.78;156697.81;4985817;28;20468;-79
2023/09/18 08:15:48;;;;;;;3.60;1.50;;;;;;;20.77;93.27;156703.03;4966451;28;20535;-79
2023/09/18 08:18:15;;;;;;;3.30;1.60;;;;;;;20.74;93.07;156696.50;4982239;28;20732;-79
2023/09/18 08:20:42;;;;;;;1.63;1.20;;;;;;;20.72;92.21;156689.97;4994171;28;20870;-79
2023/09/18 08:23:09;;;;;;;4.73;1.37;;;;;;;20.71;91.81;156687.34;4965929;28;20489;-79
2023/09/18 08:25:36;;;;;;;3.23;1.13;;;;;;;20.71;92.30;156687.34;4984882;28;20990;-79
2023/09/18 08:28:04;;;;;;;3.40;0.93;;;;;;;20.65;92.64;156673.03;4980254;28;20895;-79
2023/09/18 08:30:31;;;;;;;3.23;1.43;;;;;;;20.61;91.91;156663.91;4983374;28;20468;-79
2023/09/18 08:32:59;;;;;;;2.40;1.40;;;;;;;20.59;92.61;156658.69;4983068;28;20936;-79
2023/09/18 08:35:28;;;;;;;4.07;1.50;;;;;;;20.56;92.77;156649.53;4985521;28;20968;-79
2023/09/18 08:37:55;;;;;;;2.43;0.97;;;;;;;20.54;93.45;156645.59;4980760;28;20449;-79
2023/09/18 08:40:23;;;;;;;4.53;1.33;;;;;;;20.49;93.26;156632.56;4982965;28;20827;-79
2023/09/18 08:42:53;;;;;;;5.70;0.93;;;;;;;20.48;94.09;156629.97;4984002;28;20469;-79
2023/09/18 08:45:24;;;;;;;7.23;1.37;;;;;;;20.42;94.13;156613.00;4985968;28;21036;-79
2023/09/18 08:47:52;;;;;;;2.40;1.10;;;;;;;20.39;93.96;156606.47;4982952;28;20508;-80
2023/09/18 08:50:20;;;;;;;2.13;1.00;;;;;;;20.37;94.00;156599.97;4983112;28;20665;-79
2023/09/18 08:52:48;;;;;;;2.50;1.20;;;;;;;20.29;94.38;156580.41;4983406;28;20461;-79
2023/09/18 08:55:15;;;;;;;2.30;0.93;;;;;;;20.28;95.31;156576.50;4978298;28;20556;-80
2023/09/18 08:57:42;;;;;;;1.50;1.00;;;;;;;20.22;96.05;156562.13;5003419;28;20451;-80
2023/09/18 09:00:16;;;;;;;2.07;1.00;;;;;;;20.11;96.71;156532.09;4984962;28;20510;-80
2023/09/18 09:02:42;;;;;;;2.10;1.10;;;;;;;20.04;97.92;156515.19;4986479;28;20452;-80
2023/09/18 09:05:09;;;;;;;2.23;1.00;;;;;;;19.92;98.84;156483.84;5003692;28;20453;-80
2023/09/18 09:07:37;;;;;;;2.07;0.80;;;;;;;19.86;99.39;156469.50;4987280;28;20465;-80
2023/09/18 09:10:04;;;;;;;2.60;0.80;;;;;;;19.79;99.88;156449.94;4986000;28;20441;-80
2023/09/18 09:12:57;;;;;;;1.53;1.03;;;;;;;19.75;100.00;156439.56;4986936;28;20468;-79
2023/09/18 09:15:24;;;;;;;5.20;1.20;;;;;;;19.73;100.00;156435.59;4968760;28;20453;-79
2023/09/18 09:17:52;;;;;;;1.73;0.90;;;;;;;19.73;100.00;156434.28;4985141;28;20456;-79
2023/09/18 09:20:19;;;;;;;1.57;1.17;;;;;;;19.68;100.00;156422.56;4987330;28;20486;-80
2023/09/18 09:22:47;;;;;;;3.10;1.17;;;;;;;19.65;100.00;156413.44;4985609;28;20456;-79
2023/09/18 09:25:23;;;;;;;2.63;1.20;;;;;;;19.66;100.00;156416.06;4986958;28;20455;-80
2023/09/18 09:27:49;;;;;;;3.30;1.10;;;;;;;19.72;100.00;156431.72;4987772;28;20467;-79
2023/09/18 09:30:20;;;;;;;2.10;1.00;;;;;;;19.74;100.00;156436.91;4986448;28;20458;-79
2023/09/18 09:32:49;;;;;;;2.77;1.23;;;;;;;19.72;100.00;156433.03;4984961;28;20459;-79
2023/09/18 09:35:21;;;;;;;1.93;1.30;;;;;;;19.72;100.00;156431.72;5002779;28;20484;-79
2023/09/18 09:37:50;;;;;;;2.80;1.30;;;;;;;19.74;100.00;156436.91;4986066;28;20445;-80
2023/09/18 09:40:17;;;;;;;1.90;1.20;;;;;;;19.70;100.00;156426.47;4985547;28;20468;-79
2023/09/18 09:42:43;;;;;;;2.00;0.90;;;;;;;19.70;100.00;156426.47;4985204;28;20464;-79
2023/09/18 09:45:14;;;;;;;2.70;1.43;;;;;;;19.70;100.00;156426.47;4985594;28;20515;-79
2023/09/18 09:47:40;;;;;;;2.57;1.10;;;;;;;19.67;100.00;156419.94;4985884;28;21065;-79
2023/09/18 09:50:09;;;;;;;3.47;1.40;;;;;;;19.66;100.00;156416.06;5002829;28;20452;-79
2023/09/18 09:52:37;;;;;;;2.13;1.20;;;;;;;19.68;100.00;156422.56;4979861;28;20456;-79
2023/09/18 09:55:18;;;;;;;2.53;1.10;;;;;;;19.72;100.00;156431.72;4980445;28;21325;-79
2023/09/18 09:57:48;;;;;;;2.40;1.40;;;;;;;19.73;100.00;156435.59;4986958;28;20456;-79
2023/09/18 10:00:26;;;;;;;2.07;1.50;;;;;;;19.77;100.00;156446.06;4987656;28;21065;-79
2023/09/18 10:02:55;;;;;;;1.90;1.67;;;;;;;19.75;100.00;156439.56;4987844;28;20588;-78
2023/09/18 10:05:23;;;;;;;2.50;1.10;;;;;;;19.84;100.00;156464.31;4989643;28;20472;-78
2023/09/18 10:07:50;;;;;;;3.33;1.47;;;;;;;19.88;100.00;156474.69;4972620;28;20499;-79
2023/09/18 10:10:18;;;;;;;2.30;1.30;;;;;;;19.93;100.00;156486.47;4989031;28;20460;-79
2023/09/18 10:12:49;;;;;;;2.50;1.70;;;;;;;19.89;100.00;156477.34;4971489;28;20453;-79
2023/09/18 10:15:17;;;;;;;3.93;1.70;;;;;;;19.86;100.00;156468.19;5007676;28;21097;-79
2023/09/18 10:17:45;;;;;;;1.70;1.20;;;;;;;19.80;100.00;156452.59;5006037;28;20907;-79
2023/09/18 10:20:19;;;;;;;2.27;1.23;;;;;;;19.75;100.00;156440.81;4988316;28;20464;-79
2023/09/18 10:22:47;;;;;;;2.83;1.40;;;;;;;19.77;100.00;156444.75;4989445;28;20465;-80
2023/09/18 10:25:17;;;;;;;3.87;1.50;;;;;;;19.55;100.00;156388.69;4989517;28;20480;-80
2023/09/18 10:27:46;;;;;;;2.93;1.90;;;;;;;19.61;100.00;156404.34;4986761;28;20464;-79
2023/09/18 10:30:13;;;;;;;3.97;1.33;;;;;;;19.65;100.00;156414.75;4987916;28;20539;-80
2023/09/18 10:32:41;;;;;;;3.20;1.33;;;;;;;19.66;100.00;156416.06;4986749;28;20492;-79
2023/09/18 10:35:08;;;;;;;3.77;1.50;;;;;;;19.68;100.00;156422.56;4988284;28;20455;-79
2023/09/18 10:37:37;;;;;;;3.03;1.23;;;;;;;19.69;100.00;156423.88;4982474;28;20449;-78
2023/09/18 10:40:07;;;;;;;2.10;1.43;;;;;;;19.68;100.00;156421.25;5005366;28;20843;-78
2023/09/18 10:42:34;;;;;;;2.17;1.30;;;;;;;19.70;100.00;156426.47;5006321;28;20857;-80
2023/09/18 10:45:04;;;;;;;1.97;1.50;;;;;;;19.66;100.00;156416.06;4971411;28;20812;-79
2023/09/18 10:47:31;;;;;;;2.50;1.43;;;;;;;19.59;100.00;156397.81;4987056;28;20445;-79
2023/09/18 10:49:58;;;;;;;2.43;1.70;;;;;;;19.54;100.00;156384.78;5007001;28;20444;-78
2023/09/18 10:52:25;;;;;;;2.30;1.50;;;;;;;19.51;100.00;156378.28;5006566;28;20482;-78
2023/09/18 10:54:51;;;;;;;5.40;1.97;;;;;;;19.51;100.00;156376.97;4985887;28;20452;-78
2023/09/18 10:57:18;;;;;;;2.83;1.10;;;;;;;19.51;100.00;156376.97;4976631;28;20488;-78
2023/09/18 10:59:45;;;;;;;4.03;1.47;;;;;;;19.49;100.00;156373.03;4988734;28;20456;-78
2023/09/18 11:02:16;;;;;;;2.20;1.17;;;;;;;19.46;100.00;156363.94;4976211;28;20456;-78
2023/09/18 11:04:43;;;;;;;2.00;1.23;;;;;;;19.45;100.00;156362.63;5003352;28;20551;-78
2023/09/18 11:07:10;;;;;;;2.80;1.43;;;;;;;19.43;100.00;156357.41;5004133;28;20460;-78
2023/09/18 11:09:43;;;;;;;2.30;1.20;;;;;;;19.38;100.00;156344.34;4989401;28;20563;-78
2023/09/18 11:12:11;;;;;;;2.80;1.60;;;;;;;19.33;100.00;156332.56;4986597;28;20880;-78
2023/09/18 11:14:49;;;;;;;3.87;1.30;;;;;;;19.33;100.00;156332.56;4985970;28;20553;-79
2023/09/18 11:17:34;;;;;;;2.43;1.23;;;;;;;19.38;100.00;156345.66;5005758;28;20456;-79
2023/09/18 11:20:17;;;;;;;3.87;1.73;;;;;;;19.42;100.00;156356.09;4989928;28;20468;-78
2023/09/18 11:22:48;;;;;;;2.80;1.50;;;;;;;19.40;100.00;156349.59;5006146;28;20480;-78
2023/09/18 11:25:40;;;;;;;2.47;1.40;;;;;;;19.41;100.00;156352.16;5004005;28;20448;-78